Time;durP1;ratioP1;P1;durP2;ratioP2;P2;SDS_P1;SDS_P2;PMS_P1;PMS_P2;Temp;Humidity;BMP_temperature;BMP_pressure;BME280_temperature;BME280_humidity;BME280_pressure;Samples;Min_cycle;Max_cycle;Signal;HPM_P1;HPM_P2
2023/03/24 00:01:56;;;;;;;7.90;5.80;;;13.80;94.90;;;;;;21080936;28;20210;-80
2023/03/24 00:11:57;;;;;;;7.33;5.67;;;13.80;95.10;;;;;;21079616;28;20234;-79
2023/03/24 00:22:00;;;;;;;7.63;5.93;;;13.70;95.50;;;;;;21079109;28;20724;-79
2023/03/24 00:32:01;;;;;;;8.40;6.20;;;13.80;95.90;;;;;;21078932;28;20242;-79
2023/03/24 00:42:03;;;;;;;6.50;4.70;;;13.70;96.10;;;;;;21078465;28;20207;-80
2023/03/24 00:52:09;;;;;;;8.57;5.60;;;13.70;96.50;;;;;;21078215;28;20237;-80
2023/03/24 01:13:46;;;;;;;5.63;4.10;;;13.70;97.20;;;;;;21077059;28;20230;-79
2023/03/24 01:23:48;;;;;;;6.93;4.67;;;13.60;97.50;;;;;;21077060;28;20203;-78
2023/03/24 01:33:49;;;;;;;6.70;4.20;;;13.60;97.80;;;;;;21076844;28;20379;-78
2023/03/24 01:43:51;;;;;;;7.03;4.20;;;13.50;97.90;;;;;;21065645;28;20203;-78
2023/03/24 01:54:05;;;;;;;5.57;4.30;;;13.40;98.20;;;;;;21030318;28;20231;-78
2023/03/24 02:04:07;;;;;;;5.70;4.13;;;13.40;98.20;;;;;;21010664;28;20283;-79
2023/03/24 02:14:10;;;;;;;5.73;4.13;;;13.30;98.50;;;;;;21055373;28;20593;-78
2023/03/24 02:24:50;;;;;;;6.03;4.20;;;13.30;98.60;;;;;;21088043;28;20257;-79
2023/03/24 02:35:29;;;;;;;4.80;3.80;;;13.20;98.60;;;;;;21087498;28;20705;-78
2023/03/24 02:45:34;;;;;;;5.83;4.20;;;13.10;98.60;;;;;;21086430;28;20257;-78
2023/03/24 02:55:50;;;;;;;5.60;3.97;;;13.10;98.70;;;;;;21085672;28;20273;-78
2023/03/24 03:05:59;;;;;;;4.40;3.87;;;13.10;99.00;;;;;;21084790;28;20229;-78
2023/03/24 03:16:13;;;;;;;5.40;3.90;;;13.10;98.80;;;;;;21091399;28;20228;-81
2023/03/24 03:26:18;;;;;;;6.90;3.70;;;13.10;98.80;;;;;;21084497;28;20324;-81
2023/03/24 03:36:31;;;;;;;4.57;3.77;;;13.10;98.80;;;;;;21082418;28;20238;-79
2023/03/24 03:46:34;;;;;;;4.80;3.60;;;;;;;;;;21081837;28;20213;-80
2023/03/24 03:56:36;;;;;;;4.73;3.07;;;13.30;98.70;;;;;;21080665;28;20243;-81
2023/03/24 04:07:16;;;;;;;5.43;2.70;;;13.70;98.10;;;;;;21080177;28;20206;-81
2023/03/24 04:18:05;;;;;;;6.87;2.60;;;13.80;97.70;;;;;;21079939;28;20552;-79
2023/03/24 04:28:42;;;;;;;4.17;2.70;;;13.90;97.20;;;;;;21060364;28;20248;-80
2023/03/24 04:38:52;;;;;;;2.77;2.53;;;13.90;97.10;;;;;;21078676;28;20675;-80
2023/03/24 04:48:53;;;;;;;4.83;2.60;;;14.00;97.30;;;;;;21048238;28;20233;-81
2023/03/24 04:58:57;;;;;;;4.80;3.20;;;14.00;96.60;;;;;;20993217;28;20205;-81
2023/03/24 05:08:59;;;;;;;7.10;3.23;;;14.10;96.50;;;;;;21010019;28;20312;-81
2023/03/24 05:19:01;;;;;;;5.13;3.70;;;14.00;96.50;;;;;;21009309;28;20243;-80
2023/03/24 05:29:03;;;;;;;9.93;3.13;;;14.10;96.50;;;;;;21008072;28;20235;-80
2023/03/24 05:39:05;;;;;;;6.00;3.20;;;14.20;96.50;;;;;;21006699;28;20644;-81
2023/03/24 05:49:07;;;;;;;3.87;3.00;;;14.30;96.90;;;;;;21005810;28;20284;-79
2023/03/24 05:59:10;;;;;;;3.87;2.70;;;14.30;97.60;;;;;;21005756;28;20256;-81
2023/03/24 06:09:14;;;;;;;4.57;3.20;;;14.20;98.40;;;;;;21004860;28;20232;-79
2023/03/24 06:19:16;;;;;;;5.07;3.13;;;14.10;99.40;;;;;;21004215;28;20575;-79
2023/03/24 06:29:18;;;;;;;3.83;3.43;;;14.10;99.90;;;;;;21002632;28;20243;-80
2023/03/24 06:39:20;;;;;;;4.40;3.40;;;14.10;99.90;;;;;;21000324;28;20219;-80
2023/03/24 06:49:22;;;;;;;5.70;3.70;;;14.10;99.90;;;;;;21001911;28;20643;-84
2023/03/24 06:59:23;;;;;;;4.63;3.33;;;14.30;99.90;;;;;;21002020;28;20200;-84
2023/03/24 07:09:25;;;;;;;3.70;3.30;;;14.40;99.90;;;;;;21005589;28;20235;-83
2023/03/24 07:19:27;;;;;;;6.93;4.87;;;;;;;;;;21007889;28;20207;-83
2023/03/24 07:29:29;;;;;;;3.47;2.80;;;14.60;99.90;;;;;;20999244;28;20239;-83
2023/03/24 07:39:31;;;;;;;4.33;3.23;;;14.70;99.80;;;;;;20996696;28;20654;-83
2023/03/24 07:49:33;;;;;;;4.50;3.40;;;14.70;99.80;;;;;;20996123;28;20241;-84
2023/03/24 07:59:35;;;;;;;5.73;3.50;;;14.60;99.90;;;;;;20996196;28;20212;-84
2023/03/24 08:09:38;;;;;;;4.00;3.60;;;14.60;99.90;;;;;;20995795;28;20279;-83
2023/03/24 08:19:39;;;;;;;6.23;4.30;;;14.80;99.90;;;;;;20994786;28;20205;-82
2023/03/24 08:30:00;;;;;;;4.00;3.60;;;15.10;99.70;;;;;;20994826;28;20239;-84
2023/03/24 08:40:04;;;;;;;4.53;4.00;;;15.60;99.20;;;;;;20994909;28;20207;-83
2023/03/24 08:50:07;;;;;;;4.43;4.03;;;15.60;98.60;;;;;;21006799;28;20231;-81
2023/03/24 09:00:14;;;;;;;4.77;3.43;;;15.50;98.60;;;;;;21009744;28;20212;-84
2023/03/24 09:10:16;;;;;;;5.07;2.87;;;15.50;98.70;;;;;;21008819;28;20302;-83
2023/03/24 09:20:18;;;;;;;3.10;2.80;;;;;;;;;;21009518;28;20245;-88
2023/03/24 09:30:20;;;;;;;4.03;3.10;;;15.70;98.50;;;;;;21015209;28;20239;-88
2023/03/24 09:40:45;;;;;;;4.67;2.90;;;16.00;98.80;;;;;;21014505;28;20206;-89
2023/03/24 09:51:02;;;;;;;3.63;2.60;;;16.00;98.60;;;;;;21007068;28;20724;-85
2023/03/24 10:01:04;;;;;;;3.20;2.23;;;16.00;98.20;;;;;;21007725;28;20264;-85
2023/03/24 10:11:16;;;;;;;2.97;2.60;;;16.20;97.90;;;;;;21007011;28;20332;-85
2023/03/24 10:21:22;;;;;;;3.73;2.50;;;16.10;98.00;;;;;;21004583;28;20204;-74
2023/03/24 10:31:29;;;;;;;3.13;2.50;;;16.10;98.30;;;;;;21002984;28;20252;-84
2023/03/24 10:41:33;;;;;;;2.90;2.10;;;16.30;97.90;;;;;;21001805;28;20215;-84
2023/03/24 10:51:35;;;;;;;3.00;2.50;;;16.20;97.80;;;;;;20999591;28;20240;-75
2023/03/24 11:01:37;;;;;;;4.77;3.50;;;16.00;97.70;;;;;;21000211;28;20216;-72
2023/03/24 11:11:39;;;;;;;3.60;2.10;;;15.90;98.30;;;;;;20997957;28;20231;-71
2023/03/24 11:21:42;;;;;;;17.97;2.50;;;15.60;99.50;;;;;;20998812;28;20605;-78
2023/03/24 11:32:00;;;;;;;20.30;15.97;;;15.40;99.90;;;;;;20997783;28;20269;-74
2023/03/24 11:42:11;;;;;;;2.93;2.67;;;15.40;99.90;;;;;;20994856;28;20246;-76
2023/03/24 11:52:23;;;;;;;2.60;2.40;;;15.50;99.90;;;;;;20994886;28;20606;-75
2023/03/24 12:02:37;;;;;;;3.87;2.53;;;15.70;99.90;;;;;;20994249;28;20233;-77
2023/03/24 12:13:01;;;;;;;1.20;1.10;;;15.30;99.90;;;;;;20991770;28;20268;-74
2023/03/24 12:23:38;;;;;;;4.40;1.40;;;13.70;97.80;;;;;;20992284;28;20271;-75
2023/03/24 12:34:05;;;;;;;1.23;0.70;;;13.40;98.50;;;;;;20993075;28;20247;-76
2023/03/24 12:44:22;;;;;;;7.03;1.50;;;13.40;98.70;;;;;;20993432;28;20568;-80
2023/03/24 12:54:39;;;;;;;5.03;1.50;;;13.50;99.00;;;;;;20993664;28;20232;-77
2023/03/24 13:04:46;;;;;;;4.33;1.53;;;14.00;98.70;;;;;;20991673;28;20265;-79
2023/03/24 13:15:25;;;;;;;2.70;1.00;;;14.10;98.40;;;;;;20991804;28;20227;-75
2023/03/24 13:25:44;;;;;;;3.20;1.53;;;14.40;97.90;;;;;;20991046;28;20215;-77
2023/03/24 13:41:50;;;;;;;3.20;1.43;;;14.30;97.50;;;;;;21065639;27;20560;-75
2023/03/24 13:51:51;;;;;;;3.53;1.73;;;14.90;97.60;;;;;;21065457;28;20202;-77
2023/03/24 14:02:27;;;;;;;2.07;1.30;;;15.10;97.30;;;;;;21065273;28;20252;-79
2023/03/24 14:12:32;;;;;;;5.27;1.40;;;15.50;97.00;;;;;;21064760;28;20232;-78
2023/03/24 14:22:38;;;;;;;3.60;1.10;;;16.20;96.80;;;;;;21062695;28;20203;-78
2023/03/24 14:32:56;;;;;;;3.50;2.30;;;20.40;94.00;;;;;;21062370;28;20230;-78
2023/03/24 14:43:23;;;;;;;2.90;1.53;;;21.30;90.70;;;;;;21062739;28;20234;-76
2023/03/24 14:53:25;;;;;;;3.17;2.30;;;18.60;89.40;;;;;;21003661;28;20231;-77
2023/03/24 15:03:30;;;;;;;3.00;1.40;;;18.00;90.50;;;;;;21004992;28;20210;-75
2023/03/24 15:13:34;;;;;;;2.80;1.27;;;19.80;87.00;;;;;;21004437;28;20231;-75
2023/03/24 15:23:36;;;;;;;3.20;1.23;;;20.10;82.30;;;;;;21004131;28;20212;-73
2023/03/24 15:33:41;;;;;;;2.97;1.40;;;18.40;83.40;;;;;;21003255;28;20253;-73
2023/03/24 15:43:46;;;;;;;9.00;5.83;;;17.70;85.40;;;;;;20969427;28;20207;-72
2023/03/24 15:53:55;;;;;;;2.23;1.57;;;17.20;86.10;;;;;;20985207;28;20231;-71
2023/03/24 16:04:00;;;;;;;4.03;2.00;;;16.40;87.60;;;;;;20918965;28;20573;-77
2023/03/24 16:14:13;;;;;;;3.73;2.63;;;15.80;90.00;;;;;;20939823;28;20270;-78
2023/03/24 16:24:14;;;;;;;6.17;2.20;;;15.60;90.70;;;;;;20997547;28;20217;-78
2023/03/24 16:34:18;;;;;;;4.17;2.00;;;15.50;91.40;;;;;;20994494;28;20324;-78
2023/03/24 16:44:20;;;;;;;4.47;1.90;;;15.40;91.60;;;;;;20996511;28;20208;-77
2023/03/24 16:54:22;;;;;;;6.83;2.60;;;15.30;92.10;;;;;;20995371;28;20645;-77
2023/03/24 17:04:26;;;;;;;6.47;2.90;;;15.10;92.40;;;;;;20995487;28;20538;-77
2023/03/24 17:14:29;;;;;;;5.00;2.33;;;15.10;92.40;;;;;;20994861;28;20248;-79
2023/03/24 17:24:40;;;;;;;5.63;2.30;;;14.50;93.00;;;;;;20995606;28;20208;-77
2023/03/24 17:34:43;;;;;;;3.70;2.00;;;14.20;93.40;;;;;;20993776;28;20295;-74
2023/03/24 17:44:45;;;;;;;5.07;1.93;;;14.00;93.90;;;;;;20994584;28;20220;-77
2023/03/24 17:54:46;;;;;;;5.23;1.90;;;13.70;94.40;;;;;;20994093;28;20702;-75
2023/03/24 18:04:48;;;;;;;8.57;2.53;;;13.40;94.90;;;;;;20993712;28;20675;-75
2023/03/24 18:14:50;;;;;;;4.23;2.40;;;13.30;95.20;;;;;;20993011;28;20633;-75
2023/03/24 18:24:53;;;;;;;8.70;2.80;;;13.20;95.70;;;;;;20951307;28;20217;-74
2023/03/24 18:34:59;;;;;;;5.40;2.57;;;13.00;96.50;;;;;;20988570;28;20240;-73
2023/03/24 18:45:02;;;;;;;6.07;2.90;;;12.90;97.00;;;;;;20923358;28;20289;-76
2023/03/24 18:55:04;;;;;;;5.20;2.50;;;12.80;97.30;;;;;;20966762;28;20706;-76
2023/03/24 19:05:08;;;;;;;5.57;2.70;;;12.70;97.70;;;;;;21005587;28;20211;-77
2023/03/24 19:15:12;;;;;;;4.33;2.50;;;12.70;98.00;;;;;;21005030;28;20236;-77
2023/03/24 19:25:14;;;;;;;4.17;2.70;;;12.70;98.30;;;;;;21005105;28;20539;-75
2023/03/24 19:35:16;;;;;;;5.73;2.57;;;12.70;98.40;;;;;;21002057;28;20243;-75
2023/03/24 19:45:18;;;;;;;4.53;3.07;;;12.60;98.60;;;;;;20999857;28;20204;-77
2023/03/24 19:55:20;;;;;;;4.33;2.67;;;12.60;98.70;;;;;;20997940;28;20239;-77
2023/03/24 20:05:22;;;;;;;3.73;2.20;;;12.60;99.10;;;;;;20999349;28;20210;-79
2023/03/24 20:15:24;;;;;;;3.67;2.27;;;12.60;99.20;;;;;;20999571;28;20304;-74
2023/03/24 20:25:25;;;;;;;4.10;2.53;;;12.60;99.20;;;;;;20996312;28;20221;-76
2023/03/24 20:35:27;;;;;;;3.57;2.40;;;12.60;99.20;;;;;;20994180;28;20238;-78
2023/03/24 20:45:29;;;;;;;8.03;2.50;;;12.50;99.20;;;;;;20995022;28;20229;-78
2023/03/24 20:55:30;;;;;;;3.20;2.10;;;12.70;99.10;;;;;;20994261;28;20232;-77
2023/03/24 21:05:32;;;;;;;4.47;2.70;;;12.80;99.00;;;;;;20993945;28;20282;-78
2023/03/24 21:15:40;;;;;;;2.17;1.83;;;12.80;99.10;;;;;;20994046;28;20230;-79
2023/03/24 21:25:41;;;;;;;2.83;1.60;;;12.60;98.90;;;;;;20981003;28;20295;-74
2023/03/24 21:35:43;;;;;;;4.33;1.90;;;12.50;98.60;;;;;;20916638;28;20263;-77
2023/03/24 21:45:45;;;;;;;4.27;2.17;;;12.40;98.90;;;;;;20909253;28;20659;-76
2023/03/24 21:55:55;;;;;;;3.90;1.47;;;12.40;98.80;;;;;;20912501;28;20295;-76
2023/03/24 22:05:57;;;;;;;2.37;1.47;;;12.20;98.00;;;;;;20925479;28;20262;-77
2023/03/24 22:16:01;;;;;;;3.60;1.53;;;12.20;97.90;;;;;;20924922;28;20302;-77
2023/03/24 22:26:09;;;;;;;1.83;1.50;;;12.20;98.00;;;;;;20923964;28;20203;-76
2023/03/24 22:36:11;;;;;;;4.40;2.10;;;12.20;98.30;;;;;;20922879;28;20730;-78
2023/03/24 22:46:12;;;;;;;2.67;1.30;;;11.70;99.10;;;;;;20922704;28;20214;-75
2023/03/24 22:56:14;;;;;;;4.43;1.40;;;11.60;99.50;;;;;;20921499;28;20243;-76
2023/03/24 23:06:16;;;;;;;3.33;1.27;;;11.50;99.50;;;;;;20920540;28;20732;-74
2023/03/24 23:16:19;;;;;;;2.33;1.47;;;11.30;99.50;;;;;;20920448;28;20235;-77
2023/03/24 23:26:22;;;;;;;2.93;1.50;;;11.30;99.60;;;;;;20919920;28;20212;-80
2023/03/24 23:36:28;;;;;;;1.83;1.13;;;11.30;99.50;;;;;;20921891;28;20235;-77
2023/03/24 23:46:30;;;;;;;1.87;1.23;;;11.30;99.70;;;;;;20919026;28;20210;-76
2023/03/24 23:56:35;;;;;;;2.60;1.40;;;11.40;99.20;;;;;;20919103;28;20237;-77
